Livingston, AL

11:20 AM CDT on May 04, 2015 (GMT -0500)
Residential | | Change Station
CLOSE
Current Station
Personal Weather Station
Location: Cuba, AL
Elevation: 243 ft
Nearby Weather Stations

Elev 243 ft 32.43 °N, 88.38 °W | Updated 4 minutes ago

Clear
Clear
78.4 °F
Feels Like 80 °F
N
2.0
Wind Variable Wind from SSE
Gusts 2.0 mph

Today
High -- | Low -- °F
--% Chance of Precip.
Yesterday
High -- | Low -- °F
Precip. -- in
6:03 AM 7:36 PM
Full, 100% visible
Pressure 30.29 in
Visibility 10.0 miles
Clouds Few 7000 ft
Heat Index 80 °F
Dew Point 58 °F
Humidity 50%
Rainfall 0.00 in
Snow Depth Not available.
UV 9 out of 12
Pollen 7.20 out of 12
Air Quality Not available.
Flu Activity Sporadic
METAR KNMM 041556Z 14008KT 10SM FU FEW000 FEW070 26/12 A3026 RMK AO2 SLP255 FU FEW000 T02610122 $

More Conditions Fewer Conditions

Pressure 30.29 in
Visibility 10.0 miles
Clouds Few 7000 ft
Heat Index 80 °F
Dew Point 58 °F
Humidity 50%
Rainfall 0.00 in
Snow Depth Not available.
UV 9 out of 12
Pollen 7.20 out of 12
Air Quality Not available.
Flu Activity Sporadic
METAR KNMM 041556Z 14008KT 10SM FU FEW000 FEW070 26/12 A3026 RMK AO2 SLP255 FU FEW000 T02610122 $

More Conditions Fewer Conditions

Nepal has a long way to go to dig out and rebuild from a devastating earthquake. We have teamed up with several charities and organizations to make contributing to the relief effort as easy as possible.
How you can help: Portlight Strategies | Red Cross

10-Day Weather Forecast

Almanac

Astronomy

May. 04, 2015 Rise Set
Actual Time
Civil Twilight
Nautical Twilight
Astronomical Twilight
Moon
Length of Visible Light
Length of Day
Tomorrow will be .
, % of the Moon is Illuminated

Today's Extremes

State Highs State Lows

Community

WunderPhotos

Upload Photos

1,818,645 photos uploaded!

WunderBlogs® & News

Nearby

Air Quality

  Air Quality AQ Index Pollutant
Not available.

Snow Depth

Station Depth Elevation

Earthquake Activity

City Distance Mag. Time & Date
Minimum magnitude displayed is 2.5.

Coastal Water Temperatures

Place Temperature

Stations

Nearby Weather Stations

Station Location Temp. Windchill Dew Point Humidity Wind Precip. Elev Updated Type